Logo AVAMET
Benvolgut visitant, si us plau, ingressa Recuperar contrasenya

Pego Nord AEMET

Dades diàries. Acumulats / Últims 30 dies disponibles

Data Temperatura (°C) Humitat rel. (%) Pressió rel. (hPa) Vent (km/h) Precipitació
Mínima Mitjana Màxima Amplitud
tèrmica
Mínima Mitjana Màxima Mínima Mitjana Màxima Predom. Mitjana Ràfega
màxima
Total
(mm)
Índex-n
Mínima Mitjana Màxima Mínima Mitjana Màxima n
0 a 1
P0 max
mm 5'
Dades mensuals acumulades fins l'últim dia disponible
12/2019 7,5 11,2 16,2 14,6 13,1 18,0 22,5 15,0   83,0 212,8
Dades anuals acumulades fins l'últim dia disponible
2019 2,7 14,9 27,4 19,7 12,7 24,4 41,5 38,8   83,0 992,2
Últims 30 dies disponibles
14-12-2019 13,2     16,2     19,3 6,1 63,0 0,0
13-12-2019 16,2     18,2     20,1 3,9 83,0 0,0
12-12-2019 11,7     14,0     16,2 4,5 82,0 0,0
11-12-2019 7,5     14,3     21,1 13,6 48,0 0,0
10-12-2019 9,5     15,1     20,8 11,3 31,0 0,0
09-12-2019 13,8     18,2     22,5 8,7 48,0 0,0
08-12-2019 8,1     14,1     20,0 11,9 30,0 0,0
07-12-2019 10,5     14,1     17,8 7,3 15,0 0,0
06-12-2019 10,7     13,5     16,3 5,6 17,0 0,4
05-12-2019 11,1     14,4     17,6 6,5 22,0 12,6
04-12-2019 10,8     12,2     13,5 2,7 45,0 40,6
03-12-2019 9,8     11,5     13,1 3,3 35,0 85,4
02-12-2019 11,8     13,3     14,8 3,0 35,0 73,8
01-12-2019 11,7     15,2     18,7 7,0 22,0 0,0
30-11-2019 13,8     18,5     23,2 9,4 26,0 0,0
29-11-2019 16,5     19,6     22,8 6,3 38,0 0,0
28-11-2019 14,8     18,2     21,6 6,8 62,0 0,0
27-11-2019 14,4     18,5     22,6 8,2 59,0 0,0
26-11-2019 14,2     18,5     22,8 8,6 46,0 0,0
25-11-2019 13,5     17,1     20,6 7,1 44,0 0,0
24-11-2019 12,5     15,3     18,0 5,5 55,0 0,0
23-11-2019 12,3     14,8     17,3 5,0 73,0 0,0
22-11-2019 10,5     15,1     19,6 9,1 61,0 1,2
21-11-2019 7,4     12,2     17,0 9,6 17,0 0,2
20-11-2019 8,7     13,0     17,2 8,5 19,0 0,2
19-11-2019 7,0     12,2     17,4 10,4 28,0 0,0
18-11-2019 8,3     12,3     16,4 8,1 33,0 0,6
17-11-2019 9,9     13,8     17,8 7,9 49,0 0,6
16-11-2019 7,8     12,0     16,1 8,3 29,0 0,0
15-11-2019 9,1     12,4     15,6 6,5 55,0 0,0
Últims 13 mesos disponibles
11/2019 7,0 12,8 21,2 16,5 15,6 20,2 28,1 21,1 73,0 8,0
10/2019 13,4 17,7 20,7 21,8 15,7 25,8 32,2 18,8 57,0 82,2
09/2019 14,7 20,2 22,9 24,4 22,7 28,6 36,2 21,5 66,0 160,4
08/2019 19,1 22,6 27,4 27,9 27,8 33,2 41,5 22,4 39,0 152,4
07/2019 21,2 22,9 27,1 28,2 29,3 33,4 40,1 18,9 57,0 1,4
06/2019 13,6 18,2 22,8 23,9 22,2 29,7 38,9 25,3 58,0 0,0
05/2019 9,9 15,0 22,5 20,3 20,1 25,5 32,7 22,8 58,0 9,8
04/2019 8,8 11,9 15,7 16,2 13,8 20,5 30,3 21,5 80,0 275,6
03/2019 7,4 10,0 15,4 15,3 13,6 20,5 28,9 21,5 57,0 85,6
02/2019 5,5 8,1 11,8 13,2 13,7 18,4 24,6 19,1 77,0 0,0
01/2019 2,7 8,0 14,4 12,6 12,7 17,3 22,0 19,3 76,0 4,0
12/2018 6,9 9,7 12,6 14,5 13,1 19,4 26,0 19,1 53,0 35,0
11/2018 9,0 12,1 15,9 15,6 14,2 19,1 23,6 14,6 63,0 134,6
Tots els anys disponibles
2018 3,1 15,0 26,3 19,6 8,1 24,2 39,4 36,3 83,0 632,0
2017 0,6 14,8 26,7 19,5 8,7 24,3 40,0 39,4 86,0 684,8
2016 4,4 15,2 25,8 19,8 12,9 24,4 42,7 38,3 91,0 525,0
2015 2,4 15,3 26,9 20,1 8,2 24,9 44,0 41,6 101,0 476,0
2014 2,6 15,3 26,3 20,1 11,3 24,9 39,7 37,1 78,0 307,2
2013 3,2 14,5 18,4 19,1 19,5 23,7 38,0 34,8 94,0 669,6
2012
Temperatura (°C)
Humitat relativa (%)
Velocitat del vent i ràfega màxima (km/h)
Direcció del vent (°)
Pressió (hPa)
Precipitació (mm)
Nota sobre les dades: s'avisa a l'usuari de la provisionalitat i no oficialitat d'aquestes dades
Logo AVAMET blanc
Web allotjada a Sollutia
Llicència de Creative CommonsLa web d'AVAMET i els seus continguts estan subjectes a una llicència de
Reconeixement - No Comercial - Compartir igual
Últimes estacions: Aielo de Malferit - Centre (Soci), Faura (Inforatge), Benifairó de les Valls (Inforatge), Xàbia - Les Valls (Soci) - - -